createdAt,value
2022-08-27T00:02:18.245Z,9.73
2022-08-27T00:07:42.268Z,10.50
2022-08-27T00:13:04.604Z,11.10
2022-08-27T00:18:27.045Z,10.55
2022-08-27T00:23:49.370Z,10.02
2022-08-27T00:29:11.861Z,10.57
2022-08-27T00:34:34.507Z,10.38
2022-08-27T00:39:57.028Z,10.43
2022-08-27T00:45:22.758Z,10.82
2022-08-27T00:50:50.825Z,10.00
2022-08-27T00:56:23.474Z,10.70
2022-08-27T01:02:05.933Z,10.35
2022-08-27T01:07:34.217Z,11.07
2022-08-27T01:12:57.562Z,11.15
2022-08-27T01:18:21.346Z,11.30
2022-08-27T01:24:13.019Z,12.18
2022-08-27T01:29:36.415Z,11.00
2022-08-27T01:35:00.677Z,11.23
2022-08-27T01:40:23.054Z,11.40
2022-08-27T01:45:49.465Z,11.18
2022-08-27T01:51:12.461Z,11.57
2022-08-27T01:56:35.260Z,11.20
2022-08-27T02:01:58.099Z,11.43
2022-08-27T02:07:20.758Z,11.80
2022-08-27T02:12:43.541Z,11.90
2022-08-27T02:18:07.842Z,11.15
2022-08-27T02:23:30.515Z,11.70
2022-08-27T02:28:52.844Z,12.00
2022-08-27T02:34:15.414Z,11.20
2022-08-27T02:39:37.915Z,12.32
2022-08-27T02:45:02.445Z,11.77
2022-08-27T02:50:27.384Z,12.60
2022-08-27T02:55:52.368Z,12.43
2022-08-27T03:01:15.567Z,16.10
2022-08-27T03:06:38.066Z,16.15
2022-08-27T03:12:02.263Z,16.88
2022-08-27T03:17:43.447Z,17.02
2022-08-27T03:23:05.601Z,18.48
2022-08-27T03:28:35.558Z,18.08
2022-08-27T03:34:04.615Z,18.23
2022-08-27T03:39:26.998Z,20.45
2022-08-27T03:44:49.754Z,20.90
2022-08-27T03:50:12.087Z,20.77
2022-08-27T03:55:34.695Z,20.17
2022-08-27T04:00:57.159Z,20.75
2022-08-27T04:06:19.723Z,21.58
2022-08-27T04:11:42.704Z,22.42
2022-08-27T04:17:05.535Z,20.00
2022-08-27T04:22:28.362Z,20.92
2022-08-27T04:27:50.981Z,22.48
2022-08-27T04:33:14.692Z,22.08
2022-08-27T04:38:37.908Z,20.17
2022-08-27T04:44:05.411Z,20.90
2022-08-27T04:49:29.437Z,19.17
2022-08-27T04:54:53.827Z,22.02
2022-08-27T05:00:16.282Z,20.10
2022-08-27T05:05:39.189Z,20.30
2022-08-27T05:11:09.454Z,20.52
2022-08-27T05:16:32.668Z,20.73
2022-08-27T05:21:55.284Z,20.23
2022-08-27T05:27:17.935Z,20.67
2022-08-27T05:32:40.163Z,19.80
2022-08-27T05:38:02.466Z,19.33
2022-08-27T05:43:25.429Z,19.30
2022-08-27T05:48:49.382Z,19.05
2022-08-27T05:54:19.282Z,19.38
2022-08-27T06:00:00.636Z,18.63
2022-08-27T06:05:23.106Z,18.10
2022-08-27T06:10:45.901Z,17.85
2022-08-27T06:16:14.267Z,18.15
2022-08-27T06:21:37.140Z,17.33
2022-08-27T06:27:00.099Z,16.80
2022-08-27T06:32:24.385Z,17.23
2022-08-27T06:37:47.066Z,17.50
2022-08-27T06:43:09.976Z,16.25
2022-08-27T06:48:33.367Z,17.58
2022-08-27T06:53:59.341Z,16.98
2022-08-27T06:59:22.337Z,15.60
2022-08-27T07:04:44.713Z,17.67
2022-08-27T07:10:08.099Z,16.35
2022-08-27T07:15:30.844Z,15.52
2022-08-27T07:20:56.616Z,15.25
2022-08-27T07:26:21.840Z,15.15
2022-08-27T07:31:44.234Z,15.00
2022-08-27T07:37:06.881Z,13.13
2022-08-27T07:42:48.853Z,15.57
2022-08-27T07:48:11.597Z,14.55
2022-08-27T07:53:34.628Z,14.00
2022-08-27T07:58:56.950Z,13.85
2022-08-27T08:04:20.416Z,15.18
2022-08-27T08:09:43.054Z,15.02
2022-08-27T08:15:08.611Z,14.63
2022-08-27T08:20:56.582Z,14.57
2022-08-27T08:26:14.236Z,13.15
2022-08-27T08:31:37.301Z,13.32
2022-08-27T08:36:59.948Z,13.65
2022-08-27T08:42:40.241Z,13.10
2022-08-27T08:48:10.071Z,13.25
2022-08-27T08:54:02.552Z,12.65
2022-08-27T08:59:47.766Z,12.10
2022-08-27T09:05:11.557Z,11.98
2022-08-27T09:10:44.904Z,10.35
2022-08-27T09:16:07.790Z,9.75
2022-08-27T09:21:51.004Z,10.05
2022-08-27T09:27:15.248Z,10.98
2022-08-27T09:32:39.330Z,8.73
2022-08-27T09:38:02.664Z,8.18
2022-08-27T09:43:32.153Z,10.95
2022-08-27T09:48:55.680Z,10.50
2022-08-27T09:54:31.738Z,11.73
2022-08-27T09:59:55.108Z,10.63
2022-08-27T10:05:26.688Z,14.40
2022-08-27T10:11:03.548Z,10.70
2022-08-27T10:16:41.120Z,13.57
2022-08-27T10:22:32.088Z,7.40
2022-08-27T10:28:06.587Z,7.55
2022-08-27T10:34:07.716Z,12.38
2022-08-27T10:39:58.656Z,9.45
2022-08-27T10:45:51.619Z,7.32
2022-08-27T10:51:17.653Z,7.45
2022-08-27T10:57:51.796Z,7.20
2022-08-27T11:03:22.545Z,6.85
2022-08-27T11:08:51.059Z,6.70
2022-08-27T11:14:38.917Z,7.50
2022-08-27T11:20:25.080Z,7.70
2022-08-27T11:26:02.318Z,7.40
2022-08-27T11:31:34.477Z,7.20
2022-08-27T11:37:21.894Z,7.57
2022-08-27T11:42:51.961Z,7.47
2022-08-27T11:48:22.306Z,6.72
2022-08-27T11:54:00.222Z,7.15
2022-08-27T11:59:28.440Z,6.65
2022-08-27T12:04:54.647Z,7.13
2022-08-27T12:10:42.990Z,7.13
2022-08-27T12:16:20.693Z,7.70
2022-08-27T12:22:06.720Z,7.72
2022-08-27T12:27:35.640Z,8.45
2022-08-27T12:33:14.649Z,7.65
2022-08-27T12:38:48.033Z,7.18
2022-08-27T12:44:33.852Z,7.35
2022-08-27T12:50:01.403Z,7.78
2022-08-27T12:55:44.786Z,8.18
2022-08-27T13:01:07.276Z,7.45
2022-08-27T13:06:37.066Z,8.35
2022-08-27T13:12:01.362Z,8.52
2022-08-27T13:17:23.944Z,8.68
2022-08-27T13:22:47.252Z,7.22
2022-08-27T13:28:15.559Z,8.38
2022-08-27T13:33:40.492Z,8.63
2022-08-27T13:39:05.637Z,8.32
2022-08-27T13:44:34.839Z,8.25
2022-08-27T13:50:07.784Z,7.70
2022-08-27T13:55:30.768Z,8.05
2022-08-27T14:01:12.302Z,7.43
2022-08-27T14:06:43.911Z,7.88
2022-08-27T14:12:10.695Z,9.90
2022-08-27T14:17:38.569Z,7.47
2022-08-27T14:23:00.983Z,9.60
2022-08-27T14:28:24.107Z,7.72
2022-08-27T14:33:47.375Z,8.65
2022-08-27T14:39:10.984Z,7.90
2022-08-27T14:44:33.396Z,8.07
2022-08-27T14:49:56.861Z,6.65
2022-08-27T14:55:19.560Z,7.05
2022-08-27T15:00:43.419Z,7.00
2022-08-27T15:06:06.190Z,7.50
2022-08-27T15:11:33.999Z,7.80
2022-08-27T15:16:56.633Z,7.15
2022-08-27T15:22:22.239Z,6.97
2022-08-27T15:27:45.991Z,7.40
2022-08-27T15:33:08.606Z,6.10
2022-08-27T15:38:30.967Z,6.72
2022-08-27T15:43:53.485Z,7.53
2022-08-27T15:49:16.262Z,6.60
2022-08-27T15:54:39.149Z,6.53
2022-08-27T16:00:01.660Z,6.93
2022-08-27T16:05:31.388Z,7.88
2022-08-27T16:10:53.923Z,6.90
2022-08-27T16:16:17.352Z,7.65
2022-08-27T16:21:40.100Z,7.57
2022-08-27T16:27:02.603Z,7.25
2022-08-27T16:32:25.840Z,6.72
2022-08-27T16:37:48.733Z,6.72
2022-08-27T16:43:16.797Z,7.05
2022-08-27T16:49:01.408Z,6.53
2022-08-27T16:54:24.141Z,7.60
2022-08-27T16:59:46.493Z,7.32
2022-08-27T17:05:33.063Z,6.63
2022-08-27T17:10:53.055Z,7.40
2022-08-27T17:16:19.527Z,6.53
2022-08-27T17:21:42.523Z,6.20
2022-08-27T17:27:08.029Z,5.82
2022-08-27T17:32:33.341Z,5.50
2022-08-27T17:37:55.621Z,5.38
2022-08-27T17:43:21.124Z,5.55
2022-08-27T17:48:43.884Z,6.20
2022-08-27T17:54:08.258Z,5.13
2022-08-27T17:59:30.757Z,5.25
2022-08-27T18:04:53.482Z,4.93
2022-08-27T18:10:20.279Z,5.22
2022-08-27T18:15:43.203Z,5.97
2022-08-27T18:21:05.842Z,5.40
2022-08-27T18:26:31.322Z,5.10
2022-08-27T18:31:53.861Z,6.03
2022-08-27T18:37:16.166Z,6.15
2022-08-27T18:42:42.339Z,6.03
2022-08-27T18:48:12.763Z,6.05
2022-08-27T18:53:40.540Z,5.97
2022-08-27T18:59:03.151Z,5.60
2022-08-27T19:04:25.765Z,6.38
2022-08-27T19:09:48.083Z,5.75
2022-08-27T19:15:12.081Z,5.78
2022-08-27T19:20:34.233Z,5.97
2022-08-27T19:25:58.287Z,5.85
2022-08-27T19:31:20.518Z,5.40
2022-08-27T19:36:43.725Z,5.30
2022-08-27T19:42:06.242Z,4.65
2022-08-27T19:47:28.299Z,4.30
2022-08-27T19:52:51.754Z,3.72
2022-08-27T19:58:16.482Z,4.07
2022-08-27T20:03:39.281Z,4.25
2022-08-27T20:09:06.807Z,3.25
2022-08-27T20:14:29.379Z,3.05
2022-08-27T20:19:53.399Z,3.00
2022-08-27T20:25:15.956Z,3.67
2022-08-27T20:30:40.110Z,3.85
2022-08-27T20:36:06.854Z,3.25
2022-08-27T20:41:29.884Z,3.08
2022-08-27T20:46:57.032Z,2.78
2022-08-27T20:52:19.416Z,2.80
2022-08-27T20:58:06.353Z,2.65
2022-08-27T21:03:28.814Z,2.83
2022-08-27T21:08:51.417Z,2.75
2022-08-27T21:14:13.962Z,2.97
2022-08-27T21:19:38.136Z,2.80
2022-08-27T21:25:01.012Z,2.95
2022-08-27T21:30:26.251Z,3.22
2022-08-27T21:35:49.014Z,3.30
2022-08-27T21:41:11.588Z,3.53
2022-08-27T21:46:34.065Z,3.60
2022-08-27T21:51:56.895Z,3.88
2022-08-27T21:57:19.798Z,3.90
2022-08-27T22:02:42.405Z,3.83
2022-08-27T22:08:04.743Z,3.85
2022-08-27T22:13:27.405Z,3.92
2022-08-27T22:18:54.494Z,4.25
2022-08-27T22:24:17.780Z,4.45
2022-08-27T22:29:39.998Z,4.40
2022-08-27T22:35:02.607Z,4.97
2022-08-27T22:40:27.352Z,5.40
2022-08-27T22:45:51.063Z,4.53
2022-08-27T22:51:13.387Z,5.03
2022-08-27T22:56:36.252Z,5.70
2022-08-27T23:01:59.515Z,4.95
2022-08-27T23:07:21.731Z,5.15
2022-08-27T23:12:46.040Z,5.80
2022-08-27T23:18:08.689Z,5.55
2022-08-27T23:23:31.076Z,5.90
2022-08-27T23:28:53.780Z,6.10
2022-08-27T23:34:16.839Z,6.45
2022-08-27T23:39:39.568Z,5.70
2022-08-27T23:45:01.904Z,5.90
2022-08-27T23:50:34.238Z,5.88
2022-08-27T23:55:57.013Z,6.22
